createdAt,value
2018-09-26T00:03:09.330Z,99.90
2018-09-26T00:05:39.858Z,99.90
2018-09-26T00:08:10.333Z,99.90
2018-09-26T00:10:40.745Z,99.90
2018-09-26T00:13:11.250Z,99.90
2018-09-26T00:15:41.622Z,99.90
2018-09-26T00:18:12.230Z,99.90
2018-09-26T00:20:42.548Z,99.90
2018-09-26T00:23:12.818Z,99.90
2018-09-26T00:28:13.258Z,99.90
2018-09-26T00:33:13.365Z,99.90
2018-09-26T00:35:43.719Z,99.90
2018-09-26T00:38:14.521Z,99.90
2018-09-26T00:40:44.858Z,99.90
2018-09-26T00:43:15.194Z,99.90
2018-09-26T00:48:15.457Z,99.90
2018-09-26T00:50:45.790Z,99.90
2018-09-26T00:53:16.302Z,99.90
2018-09-26T00:55:46.756Z,99.90
2018-09-26T00:58:17.366Z,99.90
2018-09-26T01:00:47.862Z,99.90
2018-09-26T01:03:18.309Z,99.90
2018-09-26T01:08:18.365Z,99.90
2018-09-26T01:10:48.778Z,99.90
2018-09-26T01:13:19.269Z,99.90
2018-09-26T01:15:49.685Z,99.90
2018-09-26T01:18:20.121Z,99.90
2018-09-26T01:20:51.833Z,99.90
2018-09-26T01:23:22.227Z,99.90
2018-09-26T01:28:22.465Z,99.90
2018-09-26T01:33:22.606Z,99.90
2018-09-26T01:35:53.269Z,99.90
2018-09-26T01:38:23.762Z,99.90
2018-09-26T01:43:23.694Z,99.90
2018-09-26T01:45:54.098Z,99.90
2018-09-26T01:48:24.405Z,99.90
2018-09-26T01:50:54.846Z,99.90
2018-09-26T01:53:25.169Z,99.90
2018-09-26T01:55:55.497Z,99.90
2018-09-26T01:58:25.805Z,99.90
2018-09-26T02:00:56.146Z,99.90
2018-09-26T02:03:26.661Z,99.90
2018-09-26T02:05:57.105Z,99.90
2018-09-26T02:10:57.120Z,99.90
2018-09-26T02:13:27.571Z,99.90
2018-09-26T02:18:27.581Z,99.90
2018-09-26T02:20:57.934Z,99.90
2018-09-26T02:25:57.825Z,99.90
2018-09-26T02:28:28.293Z,99.90
2018-09-26T02:33:28.401Z,99.90
2018-09-26T02:35:58.740Z,99.90
2018-09-26T02:38:29.182Z,99.90
2018-09-26T02:43:29.325Z,99.90
2018-09-26T02:48:34.424Z,99.90
2018-09-26T02:51:04.674Z,99.90
2018-09-26T02:53:35.043Z,99.90
2018-09-26T02:56:05.323Z,99.90
2018-09-26T02:58:35.666Z,99.90
2018-09-26T03:03:35.969Z,99.90
2018-09-26T03:06:06.342Z,99.90
2018-09-26T03:08:36.747Z,99.90
2018-09-26T03:13:36.683Z,99.90
2018-09-26T03:16:07.139Z,99.90
2018-09-26T03:18:37.616Z,99.90
2018-09-26T03:21:08.028Z,99.90
2018-09-26T03:23:38.710Z,99.90
2018-09-26T03:26:08.989Z,99.90
2018-09-26T03:28:39.639Z,99.90
2018-09-26T03:31:10.022Z,99.90
2018-09-26T03:33:40.615Z,99.90
2018-09-26T03:36:11.026Z,99.90
2018-09-26T03:38:41.424Z,99.90
2018-09-26T03:41:11.715Z,99.90
2018-09-26T03:43:42.121Z,99.90
2018-09-26T03:46:12.393Z,99.90
2018-09-26T03:48:42.894Z,99.90
2018-09-26T03:51:13.211Z,99.90
2018-09-26T03:53:43.710Z,99.90
2018-09-26T03:58:43.567Z,99.90
2018-09-26T04:01:13.970Z,99.90
2018-09-26T04:06:14.134Z,99.90
2018-09-26T04:08:44.627Z,99.90
2018-09-26T04:13:45.211Z,99.90
2018-09-26T04:16:15.642Z,99.90
2018-09-26T04:18:46.089Z,99.90
2018-09-26T04:21:16.417Z,99.90
2018-09-26T04:23:47.145Z,99.90
2018-09-26T04:26:17.979Z,99.90
2018-09-26T04:28:48.337Z,99.90
2018-09-26T04:33:48.485Z,99.90
2018-09-26T04:41:18.300Z,99.90
2018-09-26T04:43:48.750Z,99.90
2018-09-26T04:46:19.182Z,99.90
2018-09-26T04:48:49.490Z,99.90
2018-09-26T04:51:19.762Z,99.90
2018-09-26T04:53:50.140Z,99.90
2018-09-26T04:56:20.608Z,99.90
2018-09-26T04:58:50.965Z,99.90
2018-09-26T05:01:21.408Z,99.90
2018-09-26T05:03:51.706Z,99.90
2018-09-26T05:06:22.157Z,99.90
2018-09-26T05:08:52.654Z,99.90
2018-09-26T05:11:22.943Z,99.90
2018-09-26T05:13:53.237Z,99.90
2018-09-26T05:16:23.586Z,99.90
2018-09-26T05:18:53.990Z,99.90
2018-09-26T05:21:24.341Z,99.90
2018-09-26T05:26:24.340Z,99.90
2018-09-26T05:28:54.717Z,99.90
2018-09-26T05:31:25.406Z,99.90
2018-09-26T05:33:55.709Z,99.90
2018-09-26T05:36:26.080Z,99.90
2018-09-26T05:38:56.482Z,99.90
2018-09-26T05:46:26.629Z,99.90
2018-09-26T05:48:56.873Z,99.90
2018-09-26T05:51:27.202Z,99.90
2018-09-26T05:53:57.630Z,99.90
2018-09-26T05:58:57.717Z,99.90
2018-09-26T06:01:28.219Z,99.90
2018-09-26T06:03:58.555Z,99.90
2018-09-26T06:06:28.874Z,99.90
2018-09-26T06:08:59.323Z,99.90
2018-09-26T06:11:29.830Z,99.90
2018-09-26T06:14:00.449Z,99.90
2018-09-26T06:16:30.821Z,99.90
2018-09-26T06:19:01.343Z,99.90
2018-09-26T06:24:01.351Z,99.90
2018-09-26T06:26:31.740Z,99.90
2018-09-26T06:29:02.196Z,99.90
2018-09-26T06:31:32.557Z,99.90
2018-09-26T06:34:02.818Z,99.90
2018-09-26T06:36:33.033Z,99.90
2018-09-26T06:41:33.164Z,99.90
2018-09-26T06:46:33.173Z,99.90
2018-09-26T06:49:03.601Z,99.90
2018-09-26T06:51:33.972Z,99.90
2018-09-26T06:54:04.384Z,99.90
2018-09-26T06:56:34.701Z,99.90
2018-09-26T06:59:05.034Z,99.90
2018-09-26T07:01:35.612Z,99.90
2018-09-26T07:04:06.058Z,99.90
2018-09-26T07:06:36.439Z,99.90
2018-09-26T07:09:08.901Z,99.90
2018-09-26T07:11:39.517Z,99.90
2018-09-26T07:16:39.445Z,99.90
2018-09-26T07:19:09.854Z,99.90
2018-09-26T07:21:40.058Z,99.90
2018-09-26T07:24:10.426Z,99.90
2018-09-26T07:26:40.736Z,99.90
2018-09-26T07:31:40.698Z,99.90
2018-09-26T07:34:11.142Z,99.90
2018-09-26T07:36:41.447Z,99.90
2018-09-26T07:39:12.746Z,99.90
2018-09-26T07:41:42.989Z,99.90
2018-09-26T07:46:43.205Z,99.90
2018-09-26T07:49:13.633Z,99.90
2018-09-26T07:51:44.005Z,99.90
2018-09-26T07:54:14.464Z,99.90
2018-09-26T07:56:44.725Z,99.90
2018-09-26T08:01:44.910Z,99.90
2018-09-26T08:04:15.274Z,99.90
2018-09-26T08:06:45.845Z,99.90
2018-09-26T08:09:16.306Z,99.90
2018-09-26T08:11:46.625Z,99.90
2018-09-26T08:14:17.019Z,99.90
2018-09-26T08:16:47.317Z,99.90
2018-09-26T08:24:16.873Z,99.90
2018-09-26T08:26:47.037Z,99.90
2018-09-26T08:29:17.409Z,99.90
2018-09-26T08:34:17.417Z,99.90
2018-09-26T08:41:46.878Z,99.90
2018-09-26T08:46:46.977Z,99.90
2018-09-26T08:49:17.289Z,99.90
2018-09-26T08:51:47.634Z,99.90
2018-09-26T08:54:17.905Z,99.90
2018-09-26T08:56:48.313Z,99.90
2018-09-26T08:59:18.655Z,99.90
2018-09-26T09:01:49.545Z,99.90
2018-09-26T09:04:20.024Z,99.90
2018-09-26T09:06:50.342Z,99.90
2018-09-26T09:09:20.631Z,99.90
2018-09-26T09:14:20.883Z,99.90
2018-09-26T09:16:51.378Z,99.90
2018-09-26T09:19:21.619Z,99.90
2018-09-26T09:21:51.950Z,99.40
2018-09-26T09:26:51.957Z,99.90
2018-09-26T09:29:22.369Z,98.20
2018-09-26T09:31:52.758Z,97.80
2018-09-26T09:34:23.080Z,98.80
2018-09-26T09:36:53.361Z,97.90
2018-09-26T09:41:53.645Z,94.80
2018-09-26T09:44:23.970Z,95.30
2018-09-26T09:46:54.342Z,93.30
2018-09-26T09:49:24.718Z,91.90
2018-09-26T09:51:55.154Z,90.20
2018-09-26T09:54:25.633Z,91.60
2018-09-26T09:56:55.950Z,91.10
2018-09-26T09:59:26.321Z,88.70
2018-09-26T10:01:56.624Z,87.40
2018-09-26T10:06:57.166Z,86.70
2018-09-26T10:09:27.549Z,88.30
2018-09-26T10:11:57.921Z,90.40
2018-09-26T10:16:57.986Z,87.30
2018-09-26T10:19:28.196Z,82.50
2018-09-26T10:21:58.470Z,81.60
2018-09-26T10:24:28.798Z,77.70
2018-09-26T10:26:59.017Z,77.90
2018-09-26T10:29:29.153Z,77.40
2018-09-26T10:34:28.985Z,80.40
2018-09-26T10:36:59.235Z,78.50
2018-09-26T10:39:29.510Z,76.40
2018-09-26T10:41:59.782Z,74.40
2018-09-26T10:44:30.002Z,74.70
2018-09-26T10:47:00.225Z,77.40
2018-09-26T10:49:30.569Z,75.80
2018-09-26T10:52:00.717Z,73.30
2018-09-26T10:54:31.005Z,71.60
2018-09-26T10:57:01.271Z,73.20
2018-09-26T10:59:31.549Z,74.40
2018-09-26T11:02:01.713Z,74.40
2018-09-26T11:07:01.517Z,72.70
2018-09-26T11:09:31.745Z,69.00
2018-09-26T11:12:01.931Z,70.80
2018-09-26T11:14:32.254Z,68.10
2018-09-26T11:17:02.405Z,68.10
2018-09-26T11:19:32.542Z,71.60
2018-09-26T11:22:02.745Z,67.40
2018-09-26T11:24:32.947Z,65.90
2018-09-26T11:27:03.154Z,65.50
2018-09-26T11:29:33.481Z,62.40
2018-09-26T11:32:03.863Z,64.10
2018-09-26T11:34:34.010Z,62.30
2018-09-26T11:37:04.277Z,62.80
2018-09-26T11:39:34.467Z,58.90
2018-09-26T11:42:04.621Z,61.50
2018-09-26T11:44:34.883Z,59.20
2018-09-26T11:49:34.534Z,58.20
2018-09-26T11:52:04.767Z,59.60
2018-09-26T11:54:35.030Z,60.40
2018-09-26T11:57:05.413Z,57.80
2018-09-26T11:59:35.541Z,57.10
2018-09-26T12:02:06.144Z,60.80
2018-09-26T12:04:36.458Z,60.20
2018-09-26T12:09:36.467Z,60.30
2018-09-26T12:12:06.747Z,59.00
2018-09-26T12:14:36.969Z,60.20
2018-09-26T12:17:07.209Z,59.40
2018-09-26T12:19:37.396Z,58.30
2018-09-26T12:22:07.714Z,56.30
2018-09-26T12:24:37.880Z,56.50
2018-09-26T12:27:08.109Z,57.90
2018-09-26T12:29:38.193Z,57.20
2018-09-26T12:32:08.349Z,58.30
2018-09-26T12:34:38.642Z,58.60
2018-09-26T12:37:08.929Z,58.10
2018-09-26T12:42:08.934Z,57.50
2018-09-26T12:44:39.273Z,57.80
2018-09-26T12:49:39.104Z,55.50
2018-09-26T12:54:38.858Z,57.10
2018-09-26T12:57:09.134Z,58.20
2018-09-26T12:59:39.437Z,57.40
2018-09-26T13:02:09.631Z,57.70
2018-09-26T13:04:39.753Z,57.80
2018-09-26T13:07:10.070Z,55.80
2018-09-26T13:09:40.298Z,56.40
2018-09-26T13:12:10.638Z,57.50
2018-09-26T13:14:40.790Z,56.00
2018-09-26T13:17:11.006Z,55.30
2018-09-26T13:19:41.130Z,57.10
2018-09-26T13:22:11.309Z,57.90
2018-09-26T13:24:41.518Z,58.20
2018-09-26T13:27:11.817Z,57.90
2018-09-26T13:32:11.767Z,58.00
2018-09-26T13:34:41.825Z,57.30
2018-09-26T13:37:12.085Z,58.00
2018-09-26T13:42:11.968Z,58.70
2018-09-26T13:47:11.905Z,58.10
2018-09-26T13:49:42.073Z,55.90
2018-09-26T13:54:41.926Z,57.60
2018-09-26T13:57:12.250Z,57.80
2018-09-26T13:59:42.326Z,58.90
2018-09-26T14:02:13.100Z,60.20
2018-09-26T14:04:43.220Z,61.50
2018-09-26T14:07:13.394Z,62.70
2018-09-26T14:09:43.667Z,62.80
2018-09-26T14:12:13.910Z,64.90
2018-09-26T14:14:44.056Z,64.60
2018-09-26T14:17:14.661Z,62.30
2018-09-26T14:19:44.785Z,63.70
2018-09-26T14:22:15.041Z,62.80
2018-09-26T14:27:14.669Z,62.50
2018-09-26T14:34:44.089Z,62.70
2018-09-26T14:37:14.210Z,65.50
2018-09-26T14:39:47.305Z,66.50
2018-09-26T14:42:18.788Z,64.00
2018-09-26T14:44:49.017Z,64.10
2018-09-26T14:47:19.203Z,63.10
2018-09-26T14:49:49.734Z,62.50
2018-09-26T14:52:19.938Z,64.00
2018-09-26T14:54:50.129Z,64.10
2018-09-26T14:57:20.632Z,63.00
2018-09-26T15:02:20.585Z,66.30
2018-09-26T15:04:50.838Z,65.60
2018-09-26T15:07:21.011Z,64.90
2018-09-26T15:09:51.281Z,64.50
2018-09-26T15:12:21.501Z,66.30
2018-09-26T15:14:51.722Z,65.30
2018-09-26T15:17:21.909Z,65.10
2018-09-26T15:19:52.167Z,65.80
2018-09-26T15:24:51.873Z,65.00
2018-09-26T15:27:22.050Z,65.90
2018-09-26T15:29:52.286Z,65.80
2018-09-26T15:32:22.979Z,66.40
2018-09-26T15:39:52.462Z,66.40
2018-09-26T15:42:22.819Z,67.60
2018-09-26T15:44:53.038Z,66.30
2018-09-26T15:47:23.170Z,67.90
2018-09-26T15:49:53.402Z,67.70
2018-09-26T15:52:23.739Z,67.10
2018-09-26T15:54:54.171Z,67.70
2018-09-26T15:57:24.469Z,67.80
2018-09-26T15:59:54.647Z,68.60
2018-09-26T16:02:25.025Z,69.20
2018-09-26T16:04:55.341Z,69.60
2018-09-26T16:07:25.494Z,69.20
2018-09-26T16:09:55.597Z,68.60
2018-09-26T16:14:55.566Z,71.70
2018-09-26T16:17:26.169Z,69.40
2018-09-26T16:22:27.040Z,70.80
2018-09-26T16:24:57.133Z,71.60
2018-09-26T16:29:57.094Z,72.90
2018-09-26T16:32:27.362Z,72.30
2018-09-26T16:34:57.509Z,72.30
2018-09-26T16:39:57.725Z,73.90
2018-09-26T16:42:28.018Z,74.00
2018-09-26T16:44:58.025Z,75.20
2018-09-26T16:47:28.088Z,77.60
2018-09-26T16:49:58.314Z,78.50
2018-09-26T16:52:28.590Z,80.00
2018-09-26T16:54:58.754Z,81.10
2018-09-26T16:57:29.119Z,80.90
2018-09-26T16:59:59.267Z,81.00
2018-09-26T17:02:29.462Z,82.10
2018-09-26T17:04:59.593Z,82.50
2018-09-26T17:07:29.773Z,83.00
2018-09-26T17:12:29.680Z,84.40
2018-09-26T17:14:59.850Z,85.50
2018-09-26T17:17:31.059Z,86.10
2018-09-26T17:20:01.267Z,87.10
2018-09-26T17:22:31.593Z,87.60
2018-09-26T17:25:02.684Z,89.00
2018-09-26T17:27:32.906Z,89.80
2018-09-26T17:30:08.425Z,90.00
2018-09-26T17:32:41.726Z,90.30
2018-09-26T17:37:41.497Z,92.00
2018-09-26T17:40:14.930Z,93.00
2018-09-26T17:42:50.466Z,93.50
2018-09-26T17:45:21.397Z,94.30
2018-09-26T17:47:52.546Z,94.10
2018-09-26T17:50:22.694Z,93.90
2018-09-26T17:57:56.658Z,95.50
2018-09-26T18:00:27.646Z,96.10
2018-09-26T18:03:03.551Z,96.40
2018-09-26T18:05:34.598Z,96.30
2018-09-26T18:08:04.814Z,96.20
2018-09-26T18:10:35.867Z,96.30
2018-09-26T18:15:47.413Z,97.30
2018-09-26T18:18:18.731Z,97.90
2018-09-26T18:20:49.603Z,98.10
2018-09-26T18:23:20.817Z,98.20
2018-09-26T18:25:54.489Z,98.50
2018-09-26T18:28:25.820Z,98.90
2018-09-26T18:31:01.425Z,99.90
2018-09-26T18:33:31.732Z,99.90
2018-09-26T18:36:02.698Z,99.90
2018-09-26T18:41:13.494Z,99.90
2018-09-26T18:43:43.805Z,99.90
2018-09-26T18:48:51.285Z,99.90
2018-09-26T18:51:21.554Z,99.90
2018-09-26T18:58:55.717Z,99.90
2018-09-26T19:03:55.425Z,99.90
2018-09-26T19:11:29.453Z,99.90
2018-09-26T19:13:59.697Z,99.90
2018-09-26T19:16:30.775Z,99.90
2018-09-26T19:19:01.686Z,99.90
2018-09-26T19:21:33.887Z,99.90
2018-09-26T19:31:40.757Z,99.90
2018-09-26T19:34:10.732Z,99.90
2018-09-26T19:36:40.730Z,99.90
2018-09-26T19:39:11.615Z,99.90
2018-09-26T19:41:41.486Z,99.90
2018-09-26T19:44:12.741Z,99.90
2018-09-26T19:46:43.853Z,99.60
2018-09-26T19:51:43.574Z,99.90
2018-09-26T19:56:43.201Z,99.90
2018-09-26T20:01:55.049Z,99.90
2018-09-26T20:06:55.041Z,99.90
2018-09-26T20:11:54.995Z,99.90
2018-09-26T20:14:25.248Z,99.90
2018-09-26T20:16:55.501Z,99.90
2018-09-26T20:19:25.933Z,99.90
2018-09-26T20:24:25.668Z,99.90
2018-09-26T20:26:55.693Z,99.90
2018-09-26T20:29:25.787Z,99.90
2018-09-26T20:31:55.717Z,99.90
2018-09-26T20:34:25.595Z,99.90
2018-09-26T20:36:55.856Z,99.80
2018-09-26T20:39:25.782Z,99.90
2018-09-26T20:41:55.715Z,99.90
2018-09-26T20:44:25.595Z,99.50
2018-09-26T20:46:55.637Z,99.30
2018-09-26T20:49:26.342Z,99.60
2018-09-26T20:54:25.995Z,99.90
2018-09-26T20:56:55.930Z,99.90
2018-09-26T20:59:26.258Z,99.90
2018-09-26T21:01:56.268Z,99.90
2018-09-26T21:04:26.220Z,99.90
2018-09-26T21:06:56.344Z,99.90
2018-09-26T21:09:26.235Z,99.90
2018-09-26T21:11:56.264Z,99.90
2018-09-26T21:14:26.214Z,99.90
2018-09-26T21:16:56.323Z,99.90
2018-09-26T21:24:25.633Z,99.90
2018-09-26T21:26:56.231Z,99.90
2018-09-26T21:29:26.539Z,99.90
2018-09-26T21:31:56.873Z,99.90
2018-09-26T21:34:27.245Z,99.90
2018-09-26T21:36:57.525Z,99.90
2018-09-26T21:39:27.837Z,99.90
2018-09-26T21:41:58.002Z,99.90
2018-09-26T21:44:28.608Z,99.90
2018-09-26T21:46:59.726Z,99.90
2018-09-26T21:49:29.938Z,99.40
2018-09-26T21:51:59.961Z,99.90
2018-09-26T21:54:30.068Z,99.90
2018-09-26T21:57:00.322Z,99.90
2018-09-26T21:59:30.410Z,98.80
2018-09-26T22:02:00.646Z,98.60
2018-09-26T22:04:30.890Z,98.10
2018-09-26T22:07:01.105Z,97.70
2018-09-26T22:09:31.450Z,98.00
2018-09-26T22:12:01.655Z,98.00
2018-09-26T22:14:31.874Z,97.40
2018-09-26T22:17:01.982Z,97.40
2018-09-26T22:19:32.321Z,97.70
2018-09-26T22:22:02.413Z,97.60
2018-09-26T22:24:32.585Z,97.40
2018-09-26T22:27:02.766Z,97.30
2018-09-26T22:29:32.965Z,96.50
2018-09-26T22:32:03.254Z,96.30
2018-09-26T22:34:33.389Z,97.20
2018-09-26T22:37:03.746Z,97.00
2018-09-26T22:39:33.866Z,97.80
2018-09-26T22:42:04.225Z,98.20
2018-09-26T22:44:34.346Z,97.90
2018-09-26T22:47:04.613Z,98.50
2018-09-26T22:52:04.462Z,98.70
2018-09-26T22:54:34.684Z,98.30
2018-09-26T22:57:04.959Z,98.10
2018-09-26T22:59:35.251Z,96.70
2018-09-26T23:02:05.584Z,94.50
2018-09-26T23:04:35.767Z,94.80
2018-09-26T23:07:06.003Z,93.70
2018-09-26T23:09:36.216Z,93.00
2018-09-26T23:12:06.438Z,92.00
2018-09-26T23:14:36.607Z,91.50
2018-09-26T23:17:07.242Z,91.50
2018-09-26T23:19:37.482Z,90.90
2018-09-26T23:22:07.841Z,91.20
2018-09-26T23:24:38.006Z,91.10
2018-09-26T23:27:08.268Z,91.20
2018-09-26T23:29:38.685Z,91.20
2018-09-26T23:39:37.941Z,91.30
2018-09-26T23:42:08.334Z,91.50
2018-09-26T23:49:37.713Z,90.70
2018-09-26T23:52:08.035Z,91.10
2018-09-26T23:54:38.370Z,90.80
2018-09-26T23:57:08.687Z,90.60
2018-09-26T23:59:38.945Z,90.80
